createdAt,value
2022-09-09T00:01:05.168Z,82.57
2022-09-09T00:02:23.072Z,82.27
2022-09-09T00:03:39.589Z,82.61
2022-09-09T00:04:55.960Z,83.07
2022-09-09T00:06:12.323Z,83.01
2022-09-09T00:07:29.049Z,82.51
2022-09-09T00:08:45.420Z,82.71
2022-09-09T00:10:01.791Z,83.01
2022-09-09T00:11:18.170Z,82.51
2022-09-09T00:12:38.862Z,82.41
2022-09-09T00:13:55.225Z,82.51
2022-09-09T00:15:11.605Z,82.61
2022-09-09T00:16:27.970Z,82.81
2022-09-09T00:17:44.373Z,82.41
2022-09-09T00:19:00.737Z,82.10
2022-09-09T00:20:17.417Z,82.10
2022-09-09T00:21:33.777Z,82.71
2022-09-09T00:22:50.162Z,82.61
2022-09-09T00:24:06.533Z,83.01
2022-09-09T00:25:22.903Z,83.22
2022-09-09T00:26:39.577Z,83.62
2022-09-09T00:27:55.956Z,83.32
2022-09-09T00:29:13.162Z,83.12
2022-09-09T00:30:29.549Z,82.51
2022-09-09T00:31:46.013Z,82.75
2022-09-09T00:33:02.658Z,83.05
2022-09-09T00:34:20.489Z,82.85
2022-09-09T00:35:38.314Z,83.05
2022-09-09T00:36:54.701Z,83.15
2022-09-09T00:38:11.093Z,83.36
2022-09-09T00:39:27.720Z,83.46
2022-09-09T00:40:44.109Z,82.95
2022-09-09T00:42:00.520Z,83.36
2022-09-09T00:43:16.892Z,83.56
2022-09-09T00:44:33.265Z,83.76
2022-09-09T00:45:49.934Z,83.96
2022-09-09T00:47:06.330Z,84.20
2022-09-09T00:48:22.693Z,84.61
2022-09-09T00:49:39.093Z,84.81
2022-09-09T00:50:55.464Z,84.61
2022-09-09T00:52:12.144Z,84.41
2022-09-09T00:53:28.525Z,84.20
2022-09-09T00:54:46.326Z,84.20
2022-09-09T00:56:02.706Z,84.41
2022-09-09T00:57:19.098Z,85.02
2022-09-09T00:58:35.891Z,84.71
2022-09-09T00:59:52.307Z,84.51
2022-09-09T01:01:08.805Z,85.02
2022-09-09T01:02:25.331Z,84.91
2022-09-09T01:03:41.669Z,84.81
2022-09-09T01:04:58.312Z,84.61
2022-09-09T01:06:14.696Z,84.61
2022-09-09T01:07:31.106Z,84.61
2022-09-09T01:08:47.474Z,84.41
2022-09-09T01:10:03.833Z,84.31
2022-09-09T01:11:20.553Z,84.00
2022-09-09T01:12:36.912Z,84.31
2022-09-09T01:13:53.284Z,84.00
2022-09-09T01:15:09.681Z,84.41
2022-09-09T01:16:26.106Z,84.41
2022-09-09T01:17:42.717Z,84.31
2022-09-09T01:18:59.111Z,84.34
2022-09-09T01:20:15.457Z,84.34
2022-09-09T01:21:33.325Z,84.34
2022-09-09T01:22:49.686Z,84.65
2022-09-09T01:24:06.337Z,84.75
2022-09-09T01:25:22.748Z,84.25
2022-09-09T01:26:39.120Z,84.14
2022-09-09T01:27:55.498Z,84.31
2022-09-09T01:29:11.871Z,84.20
2022-09-09T01:30:28.641Z,84.11
2022-09-09T01:31:45.001Z,84.20
2022-09-09T01:33:01.394Z,84.00
2022-09-09T01:34:17.762Z,84.11
2022-09-09T01:35:34.180Z,84.61
2022-09-09T01:36:50.839Z,84.20
2022-09-09T01:38:07.234Z,84.41
2022-09-09T01:39:23.602Z,84.20
2022-09-09T01:40:40.006Z,84.11
2022-09-09T01:41:56.373Z,84.11
2022-09-09T01:43:13.034Z,84.20
2022-09-09T01:44:29.417Z,84.31
2022-09-09T01:45:45.904Z,84.41
2022-09-09T01:47:02.281Z,84.61
2022-09-09T01:48:18.666Z,84.31
2022-09-09T01:49:35.325Z,84.41
2022-09-09T01:50:51.717Z,84.41
2022-09-09T01:52:08.097Z,84.41
2022-09-09T01:53:24.457Z,84.31
2022-09-09T01:54:41.787Z,84.51
2022-09-09T01:55:58.464Z,84.41
2022-09-09T01:57:14.837Z,84.20
2022-09-09T01:58:31.196Z,84.20
2022-09-09T01:59:47.557Z,84.51
2022-09-09T02:01:03.985Z,84.20
2022-09-09T02:02:20.665Z,84.31
2022-09-09T02:03:37.020Z,84.20
2022-09-09T02:04:54.848Z,84.00
2022-09-09T02:06:11.270Z,84.00
2022-09-09T02:07:27.649Z,84.11
2022-09-09T02:08:44.341Z,84.00
2022-09-09T02:10:00.714Z,84.00
2022-09-09T02:11:18.550Z,83.70
2022-09-09T02:12:34.905Z,83.70
2022-09-09T02:13:51.316Z,83.60
2022-09-09T02:15:07.966Z,83.70
2022-09-09T02:16:24.443Z,83.60
2022-09-09T02:17:40.809Z,83.50
2022-09-09T02:18:57.200Z,83.29
2022-09-09T02:20:13.554Z,83.60
2022-09-09T02:21:30.206Z,83.29
2022-09-09T02:22:46.608Z,83.40
2022-09-09T02:24:03.057Z,82.99
2022-09-09T02:25:19.426Z,82.99
2022-09-09T02:26:35.811Z,82.85
2022-09-09T02:27:52.441Z,82.75
2022-09-09T02:29:08.852Z,82.85
2022-09-09T02:30:25.236Z,82.75
2022-09-09T02:31:43.069Z,82.85
2022-09-09T02:32:59.438Z,82.75
2022-09-09T02:34:16.103Z,82.65
2022-09-09T02:35:33.960Z,82.65
2022-09-09T02:36:50.330Z,82.55
2022-09-09T02:38:06.688Z,82.55
2022-09-09T02:39:23.102Z,82.35
2022-09-09T02:40:39.731Z,82.45
2022-09-09T02:41:56.110Z,82.55
2022-09-09T02:43:12.464Z,82.55
2022-09-09T02:44:28.883Z,82.35
2022-09-09T02:45:45.304Z,82.55
2022-09-09T02:47:01.960Z,82.35
2022-09-09T02:48:18.314Z,82.24
2022-09-09T02:49:34.714Z,82.24
2022-09-09T02:50:51.074Z,82.14
2022-09-09T02:52:07.439Z,82.24
2022-09-09T02:53:24.076Z,82.24
2022-09-09T02:54:40.485Z,82.24
2022-09-09T02:55:56.869Z,82.85
2022-09-09T02:57:13.257Z,82.55
2022-09-09T02:58:29.667Z,82.55
2022-09-09T02:59:46.318Z,82.24
2022-09-09T03:01:02.735Z,82.35
2022-09-09T03:02:19.100Z,82.45
2022-09-09T03:03:35.447Z,82.24
2022-09-09T03:04:51.887Z,82.45
2022-09-09T03:06:08.493Z,82.55
2022-09-09T03:07:24.856Z,82.75
2022-09-09T03:08:43.426Z,82.45
2022-09-09T03:10:02.463Z,82.45
2022-09-09T03:11:18.825Z,82.75
2022-09-09T03:12:35.528Z,82.35
2022-09-09T03:13:51.890Z,82.35
2022-09-09T03:15:08.292Z,82.45
2022-09-09T03:16:24.728Z,82.75
2022-09-09T03:17:41.133Z,82.35
2022-09-09T03:18:57.774Z,82.24
2022-09-09T03:20:14.173Z,82.24
2022-09-09T03:21:30.535Z,82.35
2022-09-09T03:22:46.919Z,82.24
2022-09-09T03:24:04.237Z,82.45
2022-09-09T03:25:20.966Z,82.14
2022-09-09T03:26:37.328Z,82.14
2022-09-09T03:27:53.700Z,82.24
2022-09-09T03:29:10.077Z,82.14
2022-09-09T03:30:26.480Z,82.14
2022-09-09T03:31:43.184Z,82.24
2022-09-09T03:32:59.536Z,82.04
2022-09-09T03:34:15.892Z,82.14
2022-09-09T03:35:36.255Z,82.14
2022-09-09T03:36:52.623Z,82.35
2022-09-09T03:38:10.225Z,82.35
2022-09-09T03:39:26.579Z,82.45
2022-09-09T03:40:43.065Z,82.24
2022-09-09T03:42:00.884Z,82.24
2022-09-09T03:43:17.264Z,82.35
2022-09-09T03:44:33.905Z,82.24
2022-09-09T03:45:50.422Z,82.14
2022-09-09T03:47:06.789Z,82.45
2022-09-09T03:48:24.606Z,82.59
2022-09-09T03:49:40.979Z,82.35
2022-09-09T03:50:57.647Z,82.35
2022-09-09T03:52:14.018Z,82.24
2022-09-09T03:53:31.846Z,82.35
2022-09-09T03:54:48.226Z,82.24
2022-09-09T03:56:06.077Z,82.28
2022-09-09T03:57:22.735Z,82.04
2022-09-09T03:58:39.139Z,82.28
2022-09-09T03:59:56.960Z,82.24
2022-09-09T04:01:15.147Z,82.14
2022-09-09T04:02:31.558Z,82.08
2022-09-09T04:03:48.210Z,82.14
2022-09-09T04:05:04.574Z,82.14
2022-09-09T04:06:20.981Z,82.08
2022-09-09T04:07:37.357Z,82.14
2022-09-09T04:08:55.182Z,82.04
2022-09-09T04:10:11.823Z,82.04
2022-09-09T04:11:28.234Z,82.14
2022-09-09T04:12:47.786Z,81.88
2022-09-09T04:14:05.805Z,82.04
2022-09-09T04:15:22.154Z,82.18
2022-09-09T04:16:38.894Z,82.04
2022-09-09T04:17:55.246Z,82.24
2022-09-09T04:19:13.085Z,81.94
2022-09-09T04:20:30.906Z,81.94
2022-09-09T04:21:47.317Z,82.14
2022-09-09T04:23:03.956Z,82.04
2022-09-09T04:24:20.335Z,81.94
2022-09-09T04:25:38.159Z,81.94
2022-09-09T04:26:56.038Z,81.94
2022-09-09T04:28:13.338Z,81.84
2022-09-09T04:29:29.999Z,82.14
2022-09-09T04:30:46.473Z,81.94
2022-09-09T04:32:04.346Z,82.08
2022-09-09T04:33:22.123Z,82.28
2022-09-09T04:34:56.398Z,82.69
2022-09-09T04:36:14.761Z,82.18
2022-09-09T04:37:32.602Z,82.18
2022-09-09T04:38:50.455Z,82.28
2022-09-09T04:40:08.351Z,82.39
2022-09-09T04:41:24.991Z,82.35
2022-09-09T04:42:42.833Z,82.28
2022-09-09T04:44:00.685Z,82.18
2022-09-09T04:45:18.572Z,82.39
2022-09-09T04:46:36.416Z,82.39
2022-09-09T04:47:54.027Z,82.49
2022-09-09T04:49:15.066Z,82.49
2022-09-09T04:50:35.715Z,82.59
2022-09-09T04:51:53.025Z,82.69
2022-09-09T04:53:10.906Z,82.59
2022-09-09T04:54:29.266Z,82.69
2022-09-09T04:55:47.126Z,82.59
2022-09-09T04:57:04.957Z,82.79
2022-09-09T04:58:22.818Z,82.79
2022-09-09T04:59:40.919Z,82.89
2022-09-09T05:00:58.784Z,82.79
2022-09-09T05:02:16.142Z,82.79
2022-09-09T05:03:33.370Z,82.69
2022-09-09T05:04:51.280Z,82.79
2022-09-09T05:06:08.591Z,82.99
2022-09-09T05:07:26.419Z,82.89
2022-09-09T05:08:44.261Z,82.99
2022-09-09T05:10:02.144Z,82.69
2022-09-09T05:11:19.764Z,82.75
2022-09-09T05:12:37.621Z,82.75
2022-09-09T05:13:56.456Z,82.89
2022-09-09T05:15:14.320Z,82.85
2022-09-09T05:16:32.316Z,82.75
2022-09-09T05:17:49.937Z,82.55
2022-09-09T05:19:07.813Z,82.55
2022-09-09T05:20:25.706Z,82.65
2022-09-09T05:21:44.116Z,82.55
2022-09-09T05:23:01.955Z,82.65
2022-09-09T05:24:20.595Z,82.65
2022-09-09T05:25:38.926Z,82.45
2022-09-09T05:26:56.827Z,82.45
2022-09-09T05:28:14.667Z,82.85
2022-09-09T05:29:33.038Z,82.55
2022-09-09T05:30:51.767Z,82.65
2022-09-09T05:32:14.779Z,82.45
2022-09-09T05:33:32.222Z,82.45
2022-09-09T05:34:50.079Z,82.35
2022-09-09T05:36:07.989Z,82.55
2022-09-09T05:37:25.899Z,82.35
2022-09-09T05:38:43.839Z,82.35
2022-09-09T05:40:01.860Z,82.55
2022-09-09T05:41:19.836Z,82.14
2022-09-09T05:42:36.722Z,82.24
2022-09-09T05:43:54.718Z,82.35
2022-09-09T05:45:15.105Z,82.35
2022-09-09T05:46:32.483Z,82.14
2022-09-09T05:47:50.405Z,82.24
2022-09-09T05:49:07.816Z,82.35
2022-09-09T05:50:29.768Z,82.35
2022-09-09T05:51:48.330Z,82.24
2022-09-09T05:53:06.964Z,82.04
2022-09-09T05:54:24.884Z,82.14
2022-09-09T05:55:43.333Z,82.14
2022-09-09T05:57:01.801Z,82.14
2022-09-09T05:58:19.702Z,82.10
2022-09-09T05:59:38.393Z,82.14
2022-09-09T06:00:56.211Z,82.04
2022-09-09T06:02:14.681Z,82.04
2022-09-09T06:03:32.773Z,81.94
2022-09-09T06:04:50.211Z,81.84
2022-09-09T06:06:07.674Z,81.94
2022-09-09T06:07:25.573Z,81.84
2022-09-09T06:08:44.949Z,81.80
2022-09-09T06:10:02.895Z,81.70
2022-09-09T06:11:21.334Z,81.50
2022-09-09T06:12:39.744Z,81.30
2022-09-09T06:13:57.495Z,81.30
2022-09-09T06:15:16.368Z,81.30
2022-09-09T06:16:34.826Z,81.20
2022-09-09T06:17:53.197Z,81.50
2022-09-09T06:19:11.116Z,81.30
2022-09-09T06:20:29.466Z,81.10
2022-09-09T06:21:47.621Z,81.10
2022-09-09T06:23:06.027Z,80.99
2022-09-09T06:24:24.382Z,80.99
2022-09-09T06:25:41.759Z,81.10
2022-09-09T06:27:00.189Z,81.10
2022-09-09T06:28:18.798Z,80.79
2022-09-09T06:29:36.194Z,80.65
2022-09-09T06:30:53.707Z,80.65
2022-09-09T06:32:11.119Z,80.55
2022-09-09T06:33:27.716Z,80.65
2022-09-09T06:34:46.455Z,80.55
2022-09-09T06:36:04.846Z,80.45
2022-09-09T06:37:22.335Z,80.35
2022-09-09T06:38:39.731Z,80.15
2022-09-09T06:39:57.245Z,80.05
2022-09-09T06:41:15.695Z,80.05
2022-09-09T06:42:33.097Z,80.11
2022-09-09T06:43:51.441Z,79.91
2022-09-09T06:45:11.003Z,79.85
2022-09-09T06:46:28.750Z,80.01
2022-09-09T06:47:46.254Z,79.81
2022-09-09T06:50:55.176Z,79.71
2022-09-09T06:52:13.566Z,79.61
2022-09-09T06:53:31.427Z,79.61
2022-09-09T06:54:49.376Z,79.41
2022-09-09T06:56:07.924Z,79.61
2022-09-09T06:57:36.818Z,79.50
2022-09-09T06:58:49.070Z,79.41
2022-09-09T07:00:07.508Z,79.30
2022-09-09T07:01:26.053Z,79.30
2022-09-09T07:02:43.993Z,79.41
2022-09-09T07:04:01.389Z,79.81
2022-09-09T07:05:18.822Z,79.41
2022-09-09T07:06:36.733Z,79.00
2022-09-09T07:07:55.450Z,79.21
2022-09-09T07:09:13.355Z,79.10
2022-09-09T07:10:30.889Z,79.10
2022-09-09T07:11:48.297Z,79.10
2022-09-09T07:13:06.367Z,78.90
2022-09-09T07:14:25.554Z,78.70
2022-09-09T07:15:43.271Z,78.90
2022-09-09T07:17:02.717Z,78.70
2022-09-09T07:18:22.176Z,78.76
2022-09-09T07:19:40.697Z,78.56
2022-09-09T07:20:59.366Z,78.16
2022-09-09T07:22:16.727Z,78.06
2022-09-09T07:23:36.374Z,78.16
2022-09-09T07:24:54.963Z,78.06
2022-09-09T07:26:13.358Z,78.26
2022-09-09T07:27:32.478Z,78.16
2022-09-09T07:28:50.894Z,77.66
2022-09-09T07:30:10.472Z,77.95
2022-09-09T07:31:29.507Z,77.25
2022-09-09T07:32:47.374Z,77.25
2022-09-09T07:34:05.990Z,77.55
2022-09-09T07:35:25.452Z,77.75
2022-09-09T07:36:44.867Z,77.75
2022-09-09T07:38:02.740Z,77.75
2022-09-09T07:39:21.706Z,77.35
2022-09-09T07:40:40.410Z,77.15
2022-09-09T07:41:58.380Z,76.84
2022-09-09T07:43:17.427Z,76.95
2022-09-09T07:44:36.768Z,76.84
2022-09-09T07:45:54.657Z,76.34
2022-09-09T07:47:13.347Z,75.90
2022-09-09T07:48:31.573Z,75.46
2022-09-09T07:49:49.479Z,74.26
2022-09-09T07:51:07.739Z,74.12
2022-09-09T07:52:25.533Z,73.61
2022-09-09T07:53:44.818Z,73.48
2022-09-09T07:55:03.410Z,72.67
2022-09-09T07:56:22.963Z,72.54
2022-09-09T07:57:42.385Z,71.80
2022-09-09T07:58:59.834Z,71.16
2022-09-09T08:00:18.462Z,70.76
2022-09-09T08:01:36.356Z,71.16
2022-09-09T08:02:54.291Z,71.06
2022-09-09T08:04:12.711Z,71.16
2022-09-09T08:05:31.107Z,70.83
2022-09-09T08:06:49.097Z,70.73
2022-09-09T08:08:08.220Z,69.89
2022-09-09T08:09:27.096Z,69.76
2022-09-09T08:10:44.446Z,68.95
2022-09-09T08:12:03.175Z,68.76
2022-09-09T08:13:22.908Z,68.95
2022-09-09T08:14:41.327Z,69.46
2022-09-09T08:16:00.227Z,68.95
2022-09-09T08:17:18.747Z,68.76
2022-09-09T08:18:36.373Z,69.59
2022-09-09T08:19:54.241Z,69.69
2022-09-09T08:21:12.262Z,69.42
2022-09-09T08:22:28.852Z,70.23
2022-09-09T08:23:47.253Z,70.32
2022-09-09T08:25:05.881Z,70.96
2022-09-09T08:26:23.768Z,70.73
2022-09-09T08:27:42.183Z,70.03
2022-09-09T08:29:00.029Z,69.92
2022-09-09T08:30:17.448Z,69.52
2022-09-09T08:31:35.239Z,69.72
2022-09-09T08:32:54.077Z,69.82
2022-09-09T08:34:11.944Z,69.72
2022-09-09T08:35:29.828Z,69.52
2022-09-09T08:36:48.548Z,69.92
2022-09-09T08:38:10.771Z,69.32
2022-09-09T08:39:29.645Z,69.25
2022-09-09T08:40:54.479Z,70.16
2022-09-09T08:42:11.891Z,69.56
2022-09-09T08:43:30.268Z,69.02
2022-09-09T08:44:49.005Z,69.35
2022-09-09T08:46:06.543Z,69.65
2022-09-09T08:47:24.006Z,69.45
2022-09-09T08:48:43.882Z,68.75
2022-09-09T08:50:03.646Z,69.12
2022-09-09T08:51:22.306Z,68.52
2022-09-09T08:52:41.240Z,67.91
2022-09-09T08:53:59.896Z,66.78
2022-09-09T08:55:17.893Z,66.58
2022-09-09T08:56:36.878Z,66.95
2022-09-09T08:57:55.545Z,66.05
2022-09-09T08:59:18.322Z,66.35
2022-09-09T09:00:36.248Z,65.81
2022-09-09T09:01:54.149Z,64.68
2022-09-09T09:03:12.037Z,63.78
2022-09-09T09:04:30.725Z,64.37
2022-09-09T09:05:50.747Z,64.28
2022-09-09T09:07:08.699Z,64.07
2022-09-09T09:08:27.112Z,64.48
2022-09-09T09:09:46.544Z,63.75
2022-09-09T09:11:05.225Z,64.45
2022-09-09T09:12:22.221Z,63.95
2022-09-09T09:13:43.717Z,63.92
2022-09-09T09:15:02.443Z,63.21
2022-09-09T09:16:21.396Z,63.11
2022-09-09T09:17:40.615Z,62.41
2022-09-09T09:18:58.975Z,62.98
2022-09-09T09:20:16.885Z,62.68
2022-09-09T09:21:34.314Z,62.08
2022-09-09T09:22:52.656Z,62.58
2022-09-09T09:24:11.465Z,62.28
2022-09-09T09:25:29.401Z,61.55
2022-09-09T09:26:47.317Z,60.42
2022-09-09T09:28:05.227Z,59.89
2022-09-09T09:29:23.694Z,59.06
2022-09-09T09:30:42.838Z,57.34
2022-09-09T09:32:01.190Z,57.11
2022-09-09T09:33:18.666Z,55.86
2022-09-09T09:34:36.602Z,55.04
2022-09-09T09:35:54.515Z,55.51
2022-09-09T09:37:13.165Z,53.59
2022-09-09T09:41:17.592Z,51.89
2022-09-09T09:42:35.447Z,51.50
2022-09-09T09:43:53.167Z,51.17
2022-09-09T09:45:10.555Z,51.47
2022-09-09T09:46:28.569Z,50.25
2022-09-09T09:47:47.940Z,50.33
2022-09-09T09:49:05.331Z,49.41
2022-09-09T09:50:23.947Z,49.71
2022-09-09T09:51:41.904Z,48.59
2022-09-09T09:53:00.345Z,47.97
2022-09-09T09:54:18.238Z,47.35
2022-09-09T09:55:36.600Z,46.64
2022-09-09T09:56:54.641Z,46.24
2022-09-09T09:58:15.151Z,46.11
2022-09-09T09:59:42.317Z,47.32
2022-09-09T10:00:57.961Z,47.62
2022-09-09T10:02:15.861Z,47.32
2022-09-09T10:03:34.529Z,48.14
2022-09-09T10:04:52.471Z,48.76
2022-09-09T10:06:10.393Z,49.08
2022-09-09T10:07:29.752Z,49.51
2022-09-09T10:08:47.687Z,49.98
2022-09-09T10:10:05.827Z,48.96
2022-09-09T10:11:24.165Z,48.56
2022-09-09T10:12:42.871Z,49.40
2022-09-09T10:14:00.803Z,50.00
2022-09-09T10:15:18.677Z,50.52
2022-09-09T10:16:37.376Z,50.62
2022-09-09T10:17:55.378Z,51.15
2022-09-09T10:19:13.231Z,51.79
2022-09-09T10:20:31.083Z,52.69
2022-09-09T10:21:48.995Z,53.94
2022-09-09T10:23:09.980Z,54.14
2022-09-09T10:24:28.496Z,54.54
2022-09-09T10:25:46.834Z,54.97
2022-09-09T10:27:05.682Z,55.44
2022-09-09T10:28:23.570Z,55.27
2022-09-09T10:29:41.443Z,55.36
2022-09-09T10:32:51.731Z,55.21
2022-09-09T10:36:00.102Z,53.02
2022-09-09T10:37:17.932Z,52.79
2022-09-09T10:38:35.773Z,52.97
2022-09-09T10:39:53.207Z,52.14
2022-09-09T10:41:11.314Z,50.74
2022-09-09T10:42:29.172Z,48.43
2022-09-09T10:43:46.995Z,48.83
2022-09-09T10:45:04.837Z,49.35
2022-09-09T10:46:22.813Z,49.77
2022-09-09T10:47:40.990Z,50.07
2022-09-09T10:48:59.837Z,50.07
2022-09-09T10:50:19.269Z,49.65
2022-09-09T10:51:37.089Z,48.63
2022-09-09T10:52:55.221Z,47.59
2022-09-09T10:54:13.620Z,47.27
2022-09-09T10:55:31.469Z,46.65
2022-09-09T10:56:49.303Z,46.23
2022-09-09T10:58:06.945Z,46.33
2022-09-09T10:59:24.832Z,46.11
2022-09-09T11:00:42.703Z,45.90
2022-09-09T11:02:00.544Z,45.47
2022-09-09T11:03:18.373Z,44.65
2022-09-09T11:04:36.504Z,43.14
2022-09-09T11:05:54.445Z,42.33
2022-09-09T11:07:12.393Z,42.65
2022-09-09T11:08:30.211Z,43.04
2022-09-09T11:09:48.141Z,42.52
2022-09-09T11:12:56.465Z,42.66
2022-09-09T11:14:13.834Z,42.66
2022-09-09T11:15:31.680Z,43.92
2022-09-09T11:16:49.593Z,44.40
2022-09-09T11:18:07.696Z,43.38
2022-09-09T11:19:25.598Z,44.49
2022-09-09T11:20:42.946Z,43.56
2022-09-09T11:22:00.277Z,43.36
2022-09-09T11:23:18.697Z,43.66
2022-09-09T11:24:35.411Z,43.64
2022-09-09T11:25:53.763Z,42.43
2022-09-09T11:27:11.623Z,42.03
2022-09-09T11:28:29.534Z,42.63
2022-09-09T11:29:47.973Z,42.80
2022-09-09T11:31:05.684Z,42.71
2022-09-09T11:32:24.065Z,42.60
2022-09-09T11:33:41.912Z,42.85
2022-09-09T11:34:59.805Z,44.37
2022-09-09T11:36:18.125Z,44.59
2022-09-09T11:37:35.776Z,45.53
2022-09-09T11:38:54.668Z,46.53
2022-09-09T11:40:12.039Z,46.62
2022-09-09T11:41:30.426Z,46.84
2022-09-09T11:42:47.807Z,47.52
2022-09-09T11:44:05.418Z,47.72
2022-09-09T11:45:23.275Z,47.74
2022-09-09T11:46:39.725Z,48.44
2022-09-09T11:47:57.202Z,47.92
2022-09-09T11:49:15.060Z,47.02
2022-09-09T11:50:31.746Z,47.10
2022-09-09T11:51:50.103Z,46.41
2022-09-09T11:53:06.564Z,45.81
2022-09-09T11:54:23.888Z,45.90
2022-09-09T11:55:41.764Z,46.11
2022-09-09T11:56:59.114Z,45.29
2022-09-09T11:58:16.482Z,44.99
2022-09-09T11:59:33.817Z,45.49
2022-09-09T12:00:51.156Z,45.29
2022-09-09T12:02:07.872Z,45.37
2022-09-09T12:03:25.739Z,44.85
2022-09-09T12:04:43.594Z,44.63
2022-09-09T12:05:59.989Z,44.75
2022-09-09T12:07:17.820Z,45.23
2022-09-09T12:08:35.270Z,45.74
2022-09-09T12:09:52.606Z,46.04
2022-09-09T12:11:10.458Z,46.44
2022-09-09T12:12:28.716Z,46.02
2022-09-09T12:13:46.402Z,46.06
2022-09-09T12:15:04.232Z,45.86
2022-09-09T12:16:20.644Z,46.46
2022-09-09T12:17:38.525Z,45.67
2022-09-09T12:20:14.578Z,47.82
2022-09-09T12:21:32.404Z,47.40
2022-09-09T12:22:50.216Z,48.19
2022-09-09T12:24:08.068Z,47.50
2022-09-09T12:25:25.911Z,46.11
2022-09-09T12:26:44.047Z,46.41
2022-09-09T12:28:01.899Z,46.13
2022-09-09T12:29:19.722Z,46.15
2022-09-09T12:30:37.597Z,47.17
2022-09-09T12:31:55.472Z,47.79
2022-09-09T12:33:13.858Z,47.69
2022-09-09T12:34:31.711Z,47.79
2022-09-09T12:35:49.542Z,47.39
2022-09-09T12:37:07.363Z,46.79
2022-09-09T12:38:25.223Z,46.99
2022-09-09T12:39:43.372Z,47.11
2022-09-09T12:41:01.204Z,47.53
2022-09-09T12:42:19.074Z,47.93
2022-09-09T12:43:37.030Z,47.83
2022-09-09T12:44:54.384Z,48.55
2022-09-09T12:46:12.103Z,48.85
2022-09-09T12:47:30.529Z,48.85
2022-09-09T12:48:48.757Z,48.78
2022-09-09T12:50:07.120Z,49.57
2022-09-09T12:51:24.965Z,49.68
2022-09-09T12:52:41.683Z,49.87
2022-09-09T12:53:58.220Z,49.18
2022-09-09T12:55:14.629Z,49.38
2022-09-09T12:56:32.502Z,49.70
2022-09-09T12:57:50.331Z,50.20
2022-09-09T12:59:07.164Z,50.32
2022-09-09T13:00:24.969Z,50.52
2022-09-09T13:01:42.350Z,50.72
2022-09-09T13:02:58.792Z,51.12
2022-09-09T13:04:16.150Z,51.62
2022-09-09T13:05:32.815Z,53.42
2022-09-09T13:06:50.151Z,56.34
2022-09-09T13:08:08.436Z,58.67
2022-09-09T13:09:24.989Z,61.69
2022-09-09T13:11:01.851Z,63.39
2022-09-09T13:12:03.609Z,63.92
2022-09-09T13:13:20.057Z,64.86
2022-09-09T13:14:36.495Z,66.99
2022-09-09T13:15:52.866Z,67.29
2022-09-09T13:17:09.230Z,67.39
2022-09-09T13:18:25.923Z,68.46
2022-09-09T13:19:42.323Z,67.99
2022-09-09T13:20:58.728Z,66.89
2022-09-09T13:22:15.094Z,66.53
2022-09-09T13:23:31.546Z,67.03
2022-09-09T13:24:48.247Z,66.33
2022-09-09T13:26:04.697Z,64.63
2022-09-09T13:27:22.539Z,61.54
2022-09-09T13:28:38.993Z,63.53
2022-09-09T13:29:55.386Z,64.73
2022-09-09T13:31:14.101Z,62.43
2022-09-09T13:32:30.466Z,62.93
2022-09-09T13:33:46.947Z,61.93
2022-09-09T13:35:04.790Z,61.83
2022-09-09T13:36:22.219Z,62.43
2022-09-09T13:37:38.868Z,60.83
2022-09-09T13:38:55.376Z,62.73
2022-09-09T13:40:13.246Z,63.83
2022-09-09T13:41:29.662Z,61.87
2022-09-09T13:42:46.032Z,61.96
2022-09-09T13:44:02.703Z,60.77
2022-09-09T13:45:19.113Z,61.79
2022-09-09T13:46:35.548Z,62.26
2022-09-09T13:47:53.865Z,61.19
2022-09-09T13:49:11.737Z,61.99
2022-09-09T13:50:28.409Z,61.49
2022-09-09T13:51:44.868Z,61.99
2022-09-09T13:53:03.199Z,62.46
2022-09-09T13:54:21.065Z,62.16
2022-09-09T13:55:37.462Z,62.73
2022-09-09T13:56:54.706Z,60.53
2022-09-09T13:58:11.138Z,60.41
2022-09-09T13:59:47.991Z,62.01
2022-09-09T14:00:50.234Z,63.50
2022-09-09T14:02:08.593Z,62.01
2022-09-09T14:03:25.243Z,62.87
2022-09-09T14:04:41.652Z,63.07
2022-09-09T14:05:58.032Z,59.68
2022-09-09T14:07:14.479Z,61.18
2022-09-09T14:08:30.888Z,59.38
2022-09-09T14:09:48.984Z,59.78
2022-09-09T14:11:05.394Z,59.48
2022-09-09T14:12:23.250Z,59.68
2022-09-09T14:13:39.614Z,59.98
2022-09-09T14:14:57.505Z,59.08
2022-09-09T14:16:15.641Z,59.58
2022-09-09T14:17:32.043Z,57.58
2022-09-09T14:18:48.417Z,55.81
2022-09-09T14:20:06.295Z,55.91
2022-09-09T14:21:24.174Z,53.22
2022-09-09T14:22:40.865Z,52.02
2022-09-09T14:23:57.244Z,52.72
2022-09-09T14:25:15.121Z,53.31
2022-09-09T14:26:33.025Z,51.62
2022-09-09T14:27:49.428Z,52.02
2022-09-09T14:29:06.062Z,51.52
2022-09-09T14:30:22.489Z,53.02
2022-09-09T14:31:38.934Z,55.24
2022-09-09T14:32:55.314Z,55.14
2022-09-09T14:34:11.705Z,57.26
2022-09-09T14:35:28.367Z,60.59
2022-09-09T14:36:44.795Z,58.92
2022-09-09T14:38:01.195Z,59.32
2022-09-09T14:39:17.578Z,60.52
2022-09-09T14:40:35.436Z,59.95
2022-09-09T14:41:52.106Z,60.98
2022-09-09T14:43:08.524Z,61.71
2022-09-09T14:44:24.903Z,61.51
2022-09-09T14:45:41.345Z,62.61
2022-09-09T14:46:57.762Z,62.92
2022-09-09T14:48:14.412Z,62.41
2022-09-09T14:49:30.813Z,61.91
2022-09-09T14:50:47.215Z,62.71
2022-09-09T14:52:03.602Z,62.44
2022-09-09T14:53:20.007Z,62.44
2022-09-09T14:54:36.714Z,62.34
2022-09-09T14:55:53.142Z,62.97
2022-09-09T14:57:09.517Z,62.77
2022-09-09T14:58:28.319Z,62.97
2022-09-09T14:59:48.245Z,61.44
2022-09-09T15:01:04.914Z,61.24
2022-09-09T15:02:21.371Z,60.21
2022-09-09T15:03:39.237Z,60.28
2022-09-09T15:04:55.631Z,59.68
2022-09-09T15:06:12.004Z,59.45
2022-09-09T15:07:28.692Z,59.55
2022-09-09T15:08:45.091Z,58.22
2022-09-09T15:10:01.541Z,57.62
2022-09-09T15:11:17.941Z,56.79
2022-09-09T15:12:34.348Z,58.00
2022-09-09T15:13:51.009Z,58.09
2022-09-09T15:15:07.403Z,56.96
2022-09-09T15:16:23.851Z,56.67
2022-09-09T15:17:42.241Z,56.46
2022-09-09T15:18:58.647Z,56.87
2022-09-09T15:20:15.315Z,56.57
2022-09-09T15:21:31.706Z,57.17
2022-09-09T15:22:49.552Z,57.46
2022-09-09T15:24:05.971Z,56.57
2022-09-09T15:25:22.373Z,57.29
2022-09-09T15:26:39.013Z,57.79
2022-09-09T15:27:55.396Z,58.32
2022-09-09T15:29:11.797Z,59.25
2022-09-09T15:30:28.180Z,60.08
2022-09-09T15:31:44.554Z,60.81
2022-09-09T15:33:01.239Z,61.01
2022-09-09T15:34:19.581Z,61.71
2022-09-09T15:35:36.007Z,61.41
2022-09-09T15:36:52.360Z,61.84
2022-09-09T15:38:08.751Z,62.34
2022-09-09T15:39:25.462Z,62.64
2022-09-09T15:40:41.884Z,62.64
2022-09-09T15:41:59.727Z,62.34
2022-09-09T15:43:17.583Z,62.04
2022-09-09T15:44:33.995Z,62.34
2022-09-09T15:45:50.703Z,62.74
2022-09-09T15:47:07.076Z,62.74
2022-09-09T15:48:23.469Z,62.94
2022-09-09T15:49:39.878Z,63.17
2022-09-09T15:50:56.267Z,63.78
2022-09-09T15:52:12.929Z,64.81
2022-09-09T15:53:29.346Z,66.01
2022-09-09T15:54:45.728Z,68.05
2022-09-09T15:56:02.102Z,69.15
2022-09-09T15:57:19.960Z,71.20
2022-09-09T15:58:36.641Z,70.32
2022-09-09T15:59:53.030Z,72.13
2022-09-09T16:01:09.410Z,72.67
2022-09-09T16:02:25.986Z,73.78
2022-09-09T16:03:45.609Z,74.18
2022-09-09T16:05:02.447Z,75.22
2022-09-09T16:06:18.842Z,75.76
2022-09-09T16:07:36.744Z,78.07
2022-09-09T16:08:53.128Z,78.11
2022-09-09T16:10:09.504Z,78.51
2022-09-09T16:11:26.203Z,78.71
2022-09-09T16:12:42.576Z,79.92
2022-09-09T16:13:58.969Z,79.32
2022-09-09T16:15:16.786Z,80.16
2022-09-09T16:16:33.216Z,78.85
2022-09-09T16:17:49.614Z,79.60
2022-09-09T16:19:07.483Z,80.70
2022-09-09T16:20:23.807Z,82.35
2022-09-09T16:21:41.717Z,83.36
2022-09-09T16:22:58.379Z,84.47
2022-09-09T16:24:14.793Z,84.61
2022-09-09T16:25:32.604Z,84.81
2022-09-09T16:26:50.542Z,85.22
2022-09-09T16:28:06.945Z,84.31
2022-09-09T16:29:23.591Z,84.85
2022-09-09T16:30:40.002Z,85.25
2022-09-09T16:32:01.180Z,85.56
2022-09-09T16:33:17.632Z,85.16
2022-09-09T16:34:35.484Z,86.07
2022-09-09T16:35:52.150Z,86.77
2022-09-09T16:37:10.899Z,86.27
2022-09-09T16:38:27.225Z,86.51
2022-09-09T16:39:43.635Z,86.41
2022-09-09T16:41:00.087Z,86.67
2022-09-09T16:42:16.735Z,86.47
2022-09-09T16:43:33.125Z,86.87
2022-09-09T16:44:49.493Z,87.07
2022-09-09T16:46:05.950Z,87.27
2022-09-09T16:47:23.776Z,86.16
2022-09-09T16:48:40.450Z,85.25
2022-09-09T16:49:57.671Z,85.96